sensor_id;sensor_type;location;lat;lon;timestamp;P1;durP1;ratioP1;P2;durP2;ratioP2
33864;SDS011;20159;51.072;13.526;2023-04-06T00:00:29;7.88;;;6.45;;
33864;SDS011;20159;51.072;13.526;2023-04-06T00:02:55;9.35;;;6.68;;
33864;SDS011;20159;51.072;13.526;2023-04-06T00:05:21;10.23;;;7.32;;
33864;SDS011;20159;51.072;13.526;2023-04-06T00:07:47;8.88;;;7.05;;
33864;SDS011;20159;51.072;13.526;2023-04-06T00:10:13;7.82;;;6.60;;
33864;SDS011;20159;51.072;13.526;2023-04-06T00:12:39;8.80;;;7.05;;
33864;SDS011;20159;51.072;13.526;2023-04-06T00:15:04;8.02;;;6.45;;
33864;SDS011;20159;51.072;13.526;2023-04-06T00:17:31;9.48;;;6.47;;
33864;SDS011;20159;51.072;13.526;2023-04-06T00:19:56;7.40;;;6.55;;
33864;SDS011;20159;51.072;13.526;2023-04-06T00:22:21;7.35;;;6.35;;
33864;SDS011;20159;51.072;13.526;2023-04-06T00:24:47;7.22;;;6.10;;
33864;SDS011;20159;51.072;13.526;2023-04-06T00:27:12;7.25;;;6.10;;
33864;SDS011;20159;51.072;13.526;2023-04-06T00:29:39;7.00;;;6.07;;
33864;SDS011;20159;51.072;13.526;2023-04-06T00:32:04;7.30;;;6.10;;
33864;SDS011;20159;51.072;13.526;2023-04-06T00:34:30;7.25;;;6.35;;
33864;SDS011;20159;51.072;13.526;2023-04-06T00:36:56;7.63;;;6.15;;
33864;SDS011;20159;51.072;13.526;2023-04-06T00:39:21;6.68;;;5.97;;
33864;SDS011;20159;51.072;13.526;2023-04-06T00:41:49;8.73;;;6.22;;
33864;SDS011;20159;51.072;13.526;2023-04-06T00:44:16;8.43;;;6.53;;
33864;SDS011;20159;51.072;13.526;2023-04-06T00:46:42;8.32;;;5.88;;
33864;SDS011;20159;51.072;13.526;2023-04-06T00:49:07;7.57;;;6.07;;
33864;SDS011;20159;51.072;13.526;2023-04-06T00:51:33;8.23;;;6.50;;
33864;SDS011;20159;51.072;13.526;2023-04-06T00:53:58;6.88;;;5.80;;
33864;SDS011;20159;51.072;13.526;2023-04-06T00:56:24;8.38;;;6.07;;
33864;SDS011;20159;51.072;13.526;2023-04-06T00:58:51;6.50;;;5.90;;
33864;SDS011;20159;51.072;13.526;2023-04-06T01:01:16;7.20;;;5.82;;
33864;SDS011;20159;51.072;13.526;2023-04-06T01:03:42;5.82;;;5.25;;
33864;SDS011;20159;51.072;13.526;2023-04-06T01:06:09;7.65;;;5.45;;
33864;SDS011;20159;51.072;13.526;2023-04-06T01:08:34;6.30;;;5.50;;
33864;SDS011;20159;51.072;13.526;2023-04-06T01:11:01;7.82;;;6.63;;
33864;SDS011;20159;51.072;13.526;2023-04-06T01:13:26;6.50;;;5.43;;
33864;SDS011;20159;51.072;13.526;2023-04-06T01:15:52;9.13;;;6.60;;
33864;SDS011;20159;51.072;13.526;2023-04-06T01:18:18;7.07;;;5.70;;
33864;SDS011;20159;51.072;13.526;2023-04-06T01:20:43;7.35;;;5.82;;
33864;SDS011;20159;51.072;13.526;2023-04-06T01:23:10;7.00;;;6.20;;
33864;SDS011;20159;51.072;13.526;2023-04-06T01:25:35;7.30;;;6.10;;
33864;SDS011;20159;51.072;13.526;2023-04-06T01:28:01;6.72;;;5.75;;
33864;SDS011;20159;51.072;13.526;2023-04-06T01:30:26;7.47;;;5.82;;
33864;SDS011;20159;51.072;13.526;2023-04-06T01:32:52;8.00;;;5.85;;
33864;SDS011;20159;51.072;13.526;2023-04-06T01:35:18;7.70;;;6.28;;
33864;SDS011;20159;51.072;13.526;2023-04-06T01:37:44;8.93;;;6.78;;
33864;SDS011;20159;51.072;13.526;2023-04-06T01:40:10;8.13;;;7.03;;
33864;SDS011;20159;51.072;13.526;2023-04-06T01:42:36;7.95;;;6.63;;
33864;SDS011;20159;51.072;13.526;2023-04-06T01:45:02;7.43;;;6.50;;
33864;SDS011;20159;51.072;13.526;2023-04-06T01:47:27;6.40;;;5.78;;
33864;SDS011;20159;51.072;13.526;2023-04-06T01:49:53;7.43;;;6.57;;
33864;SDS011;20159;51.072;13.526;2023-04-06T01:52:18;6.50;;;5.80;;
33864;SDS011;20159;51.072;13.526;2023-04-06T01:54:44;6.75;;;6.05;;
33864;SDS011;20159;51.072;13.526;2023-04-06T01:57:10;7.53;;;6.43;;
33864;SDS011;20159;51.072;13.526;2023-04-06T01:59:35;7.10;;;6.40;;
33864;SDS011;20159;51.072;13.526;2023-04-06T02:02:01;8.15;;;6.22;;
33864;SDS011;20159;51.072;13.526;2023-04-06T02:04:26;9.80;;;6.55;;
33864;SDS011;20159;51.072;13.526;2023-04-06T02:06:52;8.57;;;6.70;;
33864;SDS011;20159;51.072;13.526;2023-04-06T02:09:17;7.57;;;6.57;;
33864;SDS011;20159;51.072;13.526;2023-04-06T02:11:43;7.85;;;6.50;;
33864;SDS011;20159;51.072;13.526;2023-04-06T02:14:08;8.45;;;6.40;;
33864;SDS011;20159;51.072;13.526;2023-04-06T02:16:34;7.47;;;6.60;;
33864;SDS011;20159;51.072;13.526;2023-04-06T02:19:00;7.53;;;6.65;;
33864;SDS011;20159;51.072;13.526;2023-04-06T02:21:26;7.22;;;6.07;;
33864;SDS011;20159;51.072;13.526;2023-04-06T02:23:51;7.22;;;5.82;;
33864;SDS011;20159;51.072;13.526;2023-04-06T02:26:17;7.65;;;6.60;;
33864;SDS011;20159;51.072;13.526;2023-04-06T02:28:42;8.73;;;6.47;;
33864;SDS011;20159;51.072;13.526;2023-04-06T02:31:08;7.28;;;6.55;;
33864;SDS011;20159;51.072;13.526;2023-04-06T02:33:33;8.27;;;7.18;;
33864;SDS011;20159;51.072;13.526;2023-04-06T02:35:59;7.55;;;6.75;;
33864;SDS011;20159;51.072;13.526;2023-04-06T02:38:24;8.50;;;6.88;;
33864;SDS011;20159;51.072;13.526;2023-04-06T02:40:50;9.57;;;6.68;;
33864;SDS011;20159;51.072;13.526;2023-04-06T02:43:15;7.45;;;6.63;;
33864;SDS011;20159;51.072;13.526;2023-04-06T02:45:42;7.38;;;6.15;;
33864;SDS011;20159;51.072;13.526;2023-04-06T02:48:07;7.25;;;6.47;;
33864;SDS011;20159;51.072;13.526;2023-04-06T02:50:32;7.30;;;6.43;;
33864;SDS011;20159;51.072;13.526;2023-04-06T02:52:58;7.28;;;6.00;;
33864;SDS011;20159;51.072;13.526;2023-04-06T02:55:23;7.78;;;6.63;;
33864;SDS011;20159;51.072;13.526;2023-04-06T02:57:49;7.63;;;6.68;;
33864;SDS011;20159;51.072;13.526;2023-04-06T03:00:15;8.00;;;6.13;;
33864;SDS011;20159;51.072;13.526;2023-04-06T03:02:40;8.93;;;6.03;;
33864;SDS011;20159;51.072;13.526;2023-04-06T03:05:06;7.30;;;5.10;;
33864;SDS011;20159;51.072;13.526;2023-04-06T03:07:32;8.60;;;6.20;;
33864;SDS011;20159;51.072;13.526;2023-04-06T03:09:57;7.10;;;6.30;;
33864;SDS011;20159;51.072;13.526;2023-04-06T03:12:23;7.88;;;6.32;;
33864;SDS011;20159;51.072;13.526;2023-04-06T03:14:48;6.55;;;5.95;;
33864;SDS011;20159;51.072;13.526;2023-04-06T03:17:14;9.05;;;6.50;;
33864;SDS011;20159;51.072;13.526;2023-04-06T03:19:39;8.65;;;7.10;;
33864;SDS011;20159;51.072;13.526;2023-04-06T03:22:05;7.75;;;6.50;;
33864;SDS011;20159;51.072;13.526;2023-04-06T03:24:30;7.85;;;6.13;;
33864;SDS011;20159;51.072;13.526;2023-04-06T03:26:56;8.93;;;6.80;;
33864;SDS011;20159;51.072;13.526;2023-04-06T03:29:21;9.30;;;6.85;;
33864;SDS011;20159;51.072;13.526;2023-04-06T03:31:47;7.97;;;6.30;;
33864;SDS011;20159;51.072;13.526;2023-04-06T03:34:12;7.50;;;6.75;;
33864;SDS011;20159;51.072;13.526;2023-04-06T03:36:38;8.80;;;7.38;;
33864;SDS011;20159;51.072;13.526;2023-04-06T03:39:03;8.85;;;7.43;;
33864;SDS011;20159;51.072;13.526;2023-04-06T03:41:30;8.40;;;7.38;;
33864;SDS011;20159;51.072;13.526;2023-04-06T03:43:56;8.27;;;6.80;;
33864;SDS011;20159;51.072;13.526;2023-04-06T03:46:21;8.77;;;6.68;;
33864;SDS011;20159;51.072;13.526;2023-04-06T03:48:48;10.60;;;7.28;;
33864;SDS011;20159;51.072;13.526;2023-04-06T03:51:13;8.45;;;7.10;;
33864;SDS011;20159;51.072;13.526;2023-04-06T03:53:39;8.65;;;7.80;;
33864;SDS011;20159;51.072;13.526;2023-04-06T03:56:05;11.15;;;7.82;;
33864;SDS011;20159;51.072;13.526;2023-04-06T03:58:30;7.38;;;6.35;;
33864;SDS011;20159;51.072;13.526;2023-04-06T04:00:56;8.00;;;7.20;;
33864;SDS011;20159;51.072;13.526;2023-04-06T04:03:21;10.63;;;8.27;;
33864;SDS011;20159;51.072;13.526;2023-04-06T04:05:48;8.82;;;7.93;;
33864;SDS011;20159;51.072;13.526;2023-04-06T04:08:15;9.20;;;7.65;;
33864;SDS011;20159;51.072;13.526;2023-04-06T04:10:40;9.85;;;7.95;;
33864;SDS011;20159;51.072;13.526;2023-04-06T04:13:06;10.68;;;8.73;;
33864;SDS011;20159;51.072;13.526;2023-04-06T04:15:31;12.80;;;9.10;;
33864;SDS011;20159;51.072;13.526;2023-04-06T04:17:57;10.40;;;8.50;;
33864;SDS011;20159;51.072;13.526;2023-04-06T04:20:22;9.65;;;8.30;;
33864;SDS011;20159;51.072;13.526;2023-04-06T04:22:48;10.35;;;8.32;;
33864;SDS011;20159;51.072;13.526;2023-04-06T04:25:13;8.90;;;8.00;;
33864;SDS011;20159;51.072;13.526;2023-04-06T04:27:39;8.73;;;7.75;;
33864;SDS011;20159;51.072;13.526;2023-04-06T04:30:05;11.75;;;8.30;;
33864;SDS011;20159;51.072;13.526;2023-04-06T04:32:31;9.20;;;8.02;;
33864;SDS011;20159;51.072;13.526;2023-04-06T04:34:57;9.57;;;8.07;;
33864;SDS011;20159;51.072;13.526;2023-04-06T04:37:22;10.07;;;8.13;;
33864;SDS011;20159;51.072;13.526;2023-04-06T04:39:48;10.65;;;8.63;;
33864;SDS011;20159;51.072;13.526;2023-04-06T04:42:14;10.02;;;8.30;;
33864;SDS011;20159;51.072;13.526;2023-04-06T04:44:40;11.73;;;8.95;;
33864;SDS011;20159;51.072;13.526;2023-04-06T04:47:06;11.43;;;10.00;;
33864;SDS011;20159;51.072;13.526;2023-04-06T04:49:31;11.77;;;9.57;;
33864;SDS011;20159;51.072;13.526;2023-04-06T04:51:56;11.63;;;9.85;;
33864;SDS011;20159;51.072;13.526;2023-04-06T04:54:22;12.35;;;9.20;;
33864;SDS011;20159;51.072;13.526;2023-04-06T04:56:47;11.45;;;9.82;;
33864;SDS011;20159;51.072;13.526;2023-04-06T04:59:13;10.77;;;8.98;;
33864;SDS011;20159;51.072;13.526;2023-04-06T05:01:39;13.77;;;9.95;;
33864;SDS011;20159;51.072;13.526;2023-04-06T05:04:04;10.73;;;9.18;;
33864;SDS011;20159;51.072;13.526;2023-04-06T05:06:30;12.80;;;9.82;;
33864;SDS011;20159;51.072;13.526;2023-04-06T05:08:55;13.63;;;9.30;;
33864;SDS011;20159;51.072;13.526;2023-04-06T05:11:21;9.88;;;8.75;;
33864;SDS011;20159;51.072;13.526;2023-04-06T05:13:47;10.60;;;8.75;;
33864;SDS011;20159;51.072;13.526;2023-04-06T05:16:12;9.90;;;8.52;;
33864;SDS011;20159;51.072;13.526;2023-04-06T05:18:38;13.35;;;8.75;;
33864;SDS011;20159;51.072;13.526;2023-04-06T05:21:03;10.43;;;8.75;;
33864;SDS011;20159;51.072;13.526;2023-04-06T05:23:29;11.25;;;8.50;;
33864;SDS011;20159;51.072;13.526;2023-04-06T05:25:55;11.98;;;9.13;;
33864;SDS011;20159;51.072;13.526;2023-04-06T05:28:20;10.13;;;8.93;;
33864;SDS011;20159;51.072;13.526;2023-04-06T05:30:46;13.25;;;8.93;;
33864;SDS011;20159;51.072;13.526;2023-04-06T05:33:12;12.30;;;8.82;;
33864;SDS011;20159;51.072;13.526;2023-04-06T05:35:37;12.77;;;8.82;;
33864;SDS011;20159;51.072;13.526;2023-04-06T05:38:03;11.15;;;8.90;;
33864;SDS011;20159;51.072;13.526;2023-04-06T05:40:30;10.60;;;7.85;;
33864;SDS011;20159;51.072;13.526;2023-04-06T05:42:56;9.50;;;8.38;;
33864;SDS011;20159;51.072;13.526;2023-04-06T05:45:22;11.15;;;8.52;;
33864;SDS011;20159;51.072;13.526;2023-04-06T05:47:48;10.23;;;8.77;;
33864;SDS011;20159;51.072;13.526;2023-04-06T05:50:14;9.98;;;8.38;;
33864;SDS011;20159;51.072;13.526;2023-04-06T05:52:40;11.60;;;8.30;;
33864;SDS011;20159;51.072;13.526;2023-04-06T05:55:08;13.13;;;7.90;;
33864;SDS011;20159;51.072;13.526;2023-04-06T05:57:34;8.85;;;7.88;;
33864;SDS011;20159;51.072;13.526;2023-04-06T06:00:00;13.93;;;8.43;;
33864;SDS011;20159;51.072;13.526;2023-04-06T06:02:26;8.60;;;7.70;;
33864;SDS011;20159;51.072;13.526;2023-04-06T06:04:51;8.93;;;8.00;;
33864;SDS011;20159;51.072;13.526;2023-04-06T06:07:17;9.65;;;7.65;;
33864;SDS011;20159;51.072;13.526;2023-04-06T06:09:42;9.35;;;7.40;;
33864;SDS011;20159;51.072;13.526;2023-04-06T06:12:08;7.82;;;7.03;;
33864;SDS011;20159;51.072;13.526;2023-04-06T06:14:33;12.40;;;6.93;;
33864;SDS011;20159;51.072;13.526;2023-04-06T06:16:59;7.43;;;6.65;;
33864;SDS011;20159;51.072;13.526;2023-04-06T06:19:25;9.80;;;6.45;;
33864;SDS011;20159;51.072;13.526;2023-04-06T06:21:50;7.72;;;6.10;;
33864;SDS011;20159;51.072;13.526;2023-04-06T06:24:16;8.57;;;5.68;;
33864;SDS011;20159;51.072;13.526;2023-04-06T06:26:41;7.60;;;5.68;;
33864;SDS011;20159;51.072;13.526;2023-04-06T06:29:07;7.30;;;5.97;;
33864;SDS011;20159;51.072;13.526;2023-04-06T06:31:33;6.10;;;5.32;;
33864;SDS011;20159;51.072;13.526;2023-04-06T06:34:00;7.05;;;5.47;;
33864;SDS011;20159;51.072;13.526;2023-04-06T06:36:26;6.78;;;4.97;;
33864;SDS011;20159;51.072;13.526;2023-04-06T06:38:52;6.95;;;4.63;;
33864;SDS011;20159;51.072;13.526;2023-04-06T06:41:17;5.97;;;5.20;;
33864;SDS011;20159;51.072;13.526;2023-04-06T06:43:43;7.00;;;5.25;;
33864;SDS011;20159;51.072;13.526;2023-04-06T06:46:08;7.38;;;4.72;;
33864;SDS011;20159;51.072;13.526;2023-04-06T06:48:34;5.68;;;4.85;;
33864;SDS011;20159;51.072;13.526;2023-04-06T06:51:00;5.57;;;4.85;;
33864;SDS011;20159;51.072;13.526;2023-04-06T06:53:25;6.85;;;4.28;;
33864;SDS011;20159;51.072;13.526;2023-04-06T06:55:51;5.50;;;4.57;;
33864;SDS011;20159;51.072;13.526;2023-04-06T06:58:19;8.85;;;4.38;;
33864;SDS011;20159;51.072;13.526;2023-04-06T07:00:45;7.05;;;4.22;;
33864;SDS011;20159;51.072;13.526;2023-04-06T07:03:11;6.10;;;4.40;;
33864;SDS011;20159;51.072;13.526;2023-04-06T07:05:36;6.05;;;4.55;;
33864;SDS011;20159;51.072;13.526;2023-04-06T07:08:02;4.90;;;4.15;;
33864;SDS011;20159;51.072;13.526;2023-04-06T07:10:27;8.00;;;3.65;;
33864;SDS011;20159;51.072;13.526;2023-04-06T07:12:53;6.45;;;3.72;;
33864;SDS011;20159;51.072;13.526;2023-04-06T07:15:19;7.32;;;4.15;;
33864;SDS011;20159;51.072;13.526;2023-04-06T07:17:44;5.68;;;4.50;;
33864;SDS011;20159;51.072;13.526;2023-04-06T07:20:10;5.85;;;3.92;;
33864;SDS011;20159;51.072;13.526;2023-04-06T07:22:37;6.00;;;4.57;;
33864;SDS011;20159;51.072;13.526;2023-04-06T07:25:07;7.05;;;5.20;;
33864;SDS011;20159;51.072;13.526;2023-04-06T07:27:33;6.47;;;4.70;;
33864;SDS011;20159;51.072;13.526;2023-04-06T07:29:58;5.75;;;4.55;;
33864;SDS011;20159;51.072;13.526;2023-04-06T07:32:24;4.75;;;4.22;;
33864;SDS011;20159;51.072;13.526;2023-04-06T07:34:50;6.65;;;4.32;;
33864;SDS011;20159;51.072;13.526;2023-04-06T07:37:15;6.20;;;4.28;;
33864;SDS011;20159;51.072;13.526;2023-04-06T07:39:40;4.43;;;3.40;;
33864;SDS011;20159;51.072;13.526;2023-04-06T07:42:06;5.05;;;3.72;;
33864;SDS011;20159;51.072;13.526;2023-04-06T07:44:31;5.22;;;3.80;;
33864;SDS011;20159;51.072;13.526;2023-04-06T07:46:57;4.05;;;3.65;;
33864;SDS011;20159;51.072;13.526;2023-04-06T07:49:22;4.40;;;3.50;;
33864;SDS011;20159;51.072;13.526;2023-04-06T07:51:48;5.90;;;4.18;;
33864;SDS011;20159;51.072;13.526;2023-04-06T07:54:13;4.90;;;3.78;;
33864;SDS011;20159;51.072;13.526;2023-04-06T07:56:39;4.50;;;3.40;;
33864;SDS011;20159;51.072;13.526;2023-04-06T07:59:04;4.05;;;3.42;;
33864;SDS011;20159;51.072;13.526;2023-04-06T08:01:30;4.55;;;3.55;;
33864;SDS011;20159;51.072;13.526;2023-04-06T08:03:56;5.65;;;3.53;;
33864;SDS011;20159;51.072;13.526;2023-04-06T08:06:22;5.90;;;3.85;;
33864;SDS011;20159;51.072;13.526;2023-04-06T08:08:47;4.45;;;3.40;;
33864;SDS011;20159;51.072;13.526;2023-04-06T08:11:13;4.18;;;3.47;;
33864;SDS011;20159;51.072;13.526;2023-04-06T08:13:38;5.03;;;3.70;;
33864;SDS011;20159;51.072;13.526;2023-04-06T08:16:04;3.70;;;3.03;;
33864;SDS011;20159;51.072;13.526;2023-04-06T08:18:29;4.07;;;3.40;;
33864;SDS011;20159;51.072;13.526;2023-04-06T08:20:55;4.43;;;3.35;;
33864;SDS011;20159;51.072;13.526;2023-04-06T08:23:21;3.97;;;3.33;;
33864;SDS011;20159;51.072;13.526;2023-04-06T08:25:47;4.30;;;3.50;;
33864;SDS011;20159;51.072;13.526;2023-04-06T08:28:12;4.43;;;3.63;;
33864;SDS011;20159;51.072;13.526;2023-04-06T08:30:41;7.90;;;4.18;;
33864;SDS011;20159;51.072;13.526;2023-04-06T08:33:07;4.45;;;3.60;;
33864;SDS011;20159;51.072;13.526;2023-04-06T08:35:33;6.40;;;3.85;;
33864;SDS011;20159;51.072;13.526;2023-04-06T08:37:59;4.78;;;3.80;;
33864;SDS011;20159;51.072;13.526;2023-04-06T08:40:24;6.22;;;4.22;;
33864;SDS011;20159;51.072;13.526;2023-04-06T08:42:52;4.55;;;3.55;;
33864;SDS011;20159;51.072;13.526;2023-04-06T08:45:20;4.43;;;3.15;;
33864;SDS011;20159;51.072;13.526;2023-04-06T08:47:46;3.95;;;3.33;;
33864;SDS011;20159;51.072;13.526;2023-04-06T08:50:14;4.85;;;3.67;;
33864;SDS011;20159;51.072;13.526;2023-04-06T08:52:42;4.43;;;3.53;;
33864;SDS011;20159;51.072;13.526;2023-04-06T08:55:08;4.68;;;3.65;;
33864;SDS011;20159;51.072;13.526;2023-04-06T08:57:34;5.30;;;3.80;;
33864;SDS011;20159;51.072;13.526;2023-04-06T09:00:01;6.82;;;3.30;;
33864;SDS011;20159;51.072;13.526;2023-04-06T09:02:27;3.83;;;3.10;;
33864;SDS011;20159;51.072;13.526;2023-04-06T09:04:53;3.83;;;3.10;;
33864;SDS011;20159;51.072;13.526;2023-04-06T09:07:19;4.03;;;3.50;;
33864;SDS011;20159;51.072;13.526;2023-04-06T09:09:45;3.50;;;3.20;;
33864;SDS011;20159;51.072;13.526;2023-04-06T09:12:24;5.65;;;3.00;;
33864;SDS011;20159;51.072;13.526;2023-04-06T09:14:55;3.55;;;3.03;;
33864;SDS011;20159;51.072;13.526;2023-04-06T09:17:28;4.15;;;2.92;;
33864;SDS011;20159;51.072;13.526;2023-04-06T09:19:55;2.90;;;2.47;;
33864;SDS011;20159;51.072;13.526;2023-04-06T09:22:21;4.38;;;3.08;;
33864;SDS011;20159;51.072;13.526;2023-04-06T09:24:50;3.72;;;3.35;;
33864;SDS011;20159;51.072;13.526;2023-04-06T09:27:17;3.63;;;2.90;;
33864;SDS011;20159;51.072;13.526;2023-04-06T09:30:02;4.78;;;3.05;;
33864;SDS011;20159;51.072;13.526;2023-04-06T09:32:28;3.78;;;2.83;;
33864;SDS011;20159;51.072;13.526;2023-04-06T09:34:54;4.60;;;3.17;;
33864;SDS011;20159;51.072;13.526;2023-04-06T09:37:29;4.20;;;3.08;;
33864;SDS011;20159;51.072;13.526;2023-04-06T09:40:01;3.97;;;2.92;;
33864;SDS011;20159;51.072;13.526;2023-04-06T09:42:31;4.90;;;2.97;;
33864;SDS011;20159;51.072;13.526;2023-04-06T09:44:57;5.68;;;3.38;;
33864;SDS011;20159;51.072;13.526;2023-04-06T09:47:22;5.00;;;3.20;;
33864;SDS011;20159;51.072;13.526;2023-04-06T09:49:50;4.57;;;3.50;;
33864;SDS011;20159;51.072;13.526;2023-04-06T09:52:18;5.40;;;3.53;;
33864;SDS011;20159;51.072;13.526;2023-04-06T09:54:45;4.13;;;3.67;;
33864;SDS011;20159;51.072;13.526;2023-04-06T10:00:06;4.20;;;3.53;;
33864;SDS011;20159;51.072;13.526;2023-04-06T10:02:50;4.93;;;3.67;;
33864;SDS011;20159;51.072;13.526;2023-04-06T10:08:24;6.28;;;3.58;;
33864;SDS011;20159;51.072;13.526;2023-04-06T10:10:53;5.32;;;3.65;;
33864;SDS011;20159;51.072;13.526;2023-04-06T10:13:20;4.35;;;3.95;;
33864;SDS011;20159;51.072;13.526;2023-04-06T10:15:45;4.53;;;3.95;;
33864;SDS011;20159;51.072;13.526;2023-04-06T10:18:11;4.85;;;4.15;;
33864;SDS011;20159;51.072;13.526;2023-04-06T10:20:54;5.63;;;4.13;;
33864;SDS011;20159;51.072;13.526;2023-04-06T10:23:24;5.93;;;4.10;;
33864;SDS011;20159;51.072;13.526;2023-04-06T10:25:58;4.82;;;4.15;;
33864;SDS011;20159;51.072;13.526;2023-04-06T10:28:25;4.47;;;3.80;;
33864;SDS011;20159;51.072;13.526;2023-04-06T10:30:58;4.55;;;4.03;;
33864;SDS011;20159;51.072;13.526;2023-04-06T10:33:26;11.23;;;4.72;;
33864;SDS011;20159;51.072;13.526;2023-04-06T10:35:52;5.18;;;4.10;;
33864;SDS011;20159;51.072;13.526;2023-04-06T10:38:18;5.80;;;4.13;;
33864;SDS011;20159;51.072;13.526;2023-04-06T10:40:47;5.35;;;4.28;;
33864;SDS011;20159;51.072;13.526;2023-04-06T10:43:18;4.70;;;4.00;;
33864;SDS011;20159;51.072;13.526;2023-04-06T10:45:44;6.93;;;4.50;;
33864;SDS011;20159;51.072;13.526;2023-04-06T10:48:17;5.00;;;4.22;;
33864;SDS011;20159;51.072;13.526;2023-04-06T10:50:44;6.10;;;4.45;;
33864;SDS011;20159;51.072;13.526;2023-04-06T10:53:11;5.65;;;4.55;;
33864;SDS011;20159;51.072;13.526;2023-04-06T10:55:45;5.47;;;4.47;;
33864;SDS011;20159;51.072;13.526;2023-04-06T10:58:12;4.75;;;3.92;;
33864;SDS011;20159;51.072;13.526;2023-04-06T11:00:43;4.75;;;4.18;;
33864;SDS011;20159;51.072;13.526;2023-04-06T11:03:10;5.22;;;4.47;;
33864;SDS011;20159;51.072;13.526;2023-04-06T11:05:35;4.63;;;4.13;;
33864;SDS011;20159;51.072;13.526;2023-04-06T11:08:01;6.78;;;4.32;;
33864;SDS011;20159;51.072;13.526;2023-04-06T11:10:26;4.90;;;4.07;;
33864;SDS011;20159;51.072;13.526;2023-04-06T11:12:53;4.18;;;3.78;;
33864;SDS011;20159;51.072;13.526;2023-04-06T11:15:19;6.70;;;4.07;;
33864;SDS011;20159;51.072;13.526;2023-04-06T11:17:45;4.57;;;3.75;;
33864;SDS011;20159;51.072;13.526;2023-04-06T11:20:11;4.35;;;3.95;;
33864;SDS011;20159;51.072;13.526;2023-04-06T11:22:47;5.72;;;4.05;;
33864;SDS011;20159;51.072;13.526;2023-04-06T11:25:13;4.88;;;4.10;;
33864;SDS011;20159;51.072;13.526;2023-04-06T11:27:39;4.80;;;3.70;;
33864;SDS011;20159;51.072;13.526;2023-04-06T11:30:05;5.10;;;4.28;;
33864;SDS011;20159;51.072;13.526;2023-04-06T11:32:39;6.05;;;3.95;;
33864;SDS011;20159;51.072;13.526;2023-04-06T11:35:06;4.65;;;3.95;;
33864;SDS011;20159;51.072;13.526;2023-04-06T11:37:32;3.58;;;3.22;;
33864;SDS011;20159;51.072;13.526;2023-04-06T11:39:58;4.40;;;4.00;;
33864;SDS011;20159;51.072;13.526;2023-04-06T11:42:24;4.25;;;3.53;;
33864;SDS011;20159;51.072;13.526;2023-04-06T11:44:51;4.45;;;3.70;;
33864;SDS011;20159;51.072;13.526;2023-04-06T11:47:19;4.15;;;3.75;;
33864;SDS011;20159;51.072;13.526;2023-04-06T11:49:51;4.10;;;3.70;;
33864;SDS011;20159;51.072;13.526;2023-04-06T11:52:21;4.30;;;3.90;;
33864;SDS011;20159;51.072;13.526;2023-04-06T11:54:49;3.97;;;3.58;;
33864;SDS011;20159;51.072;13.526;2023-04-06T11:57:16;4.95;;;4.00;;
33864;SDS011;20159;51.072;13.526;2023-04-06T11:59:42;5.32;;;3.80;;
33864;SDS011;20159;51.072;13.526;2023-04-06T12:02:08;5.40;;;4.50;;
33864;SDS011;20159;51.072;13.526;2023-04-06T12:04:34;5.25;;;4.00;;
33864;SDS011;20159;51.072;13.526;2023-04-06T12:07:00;4.88;;;4.30;;
33864;SDS011;20159;51.072;13.526;2023-04-06T12:09:26;4.93;;;3.97;;
33864;SDS011;20159;51.072;13.526;2023-04-06T12:11:51;4.13;;;3.72;;
33864;SDS011;20159;51.072;13.526;2023-04-06T12:14:17;5.85;;;4.20;;
33864;SDS011;20159;51.072;13.526;2023-04-06T12:16:42;6.35;;;4.22;;
33864;SDS011;20159;51.072;13.526;2023-04-06T12:19:08;4.63;;;4.13;;
33864;SDS011;20159;51.072;13.526;2023-04-06T12:21:34;4.60;;;4.20;;
33864;SDS011;20159;51.072;13.526;2023-04-06T12:24:03;4.53;;;3.97;;
33864;SDS011;20159;51.072;13.526;2023-04-06T12:26:30;4.07;;;3.67;;
33864;SDS011;20159;51.072;13.526;2023-04-06T12:28:56;4.00;;;3.58;;
33864;SDS011;20159;51.072;13.526;2023-04-06T12:31:22;4.38;;;3.60;;
33864;SDS011;20159;51.072;13.526;2023-04-06T12:33:48;4.18;;;3.78;;
33864;SDS011;20159;51.072;13.526;2023-04-06T12:36:15;4.93;;;3.83;;
33864;SDS011;20159;51.072;13.526;2023-04-06T12:38:43;6.35;;;3.92;;
33864;SDS011;20159;51.072;13.526;2023-04-06T12:41:10;4.03;;;3.42;;
33864;SDS011;20159;51.072;13.526;2023-04-06T12:43:36;4.97;;;4.07;;
33864;SDS011;20159;51.072;13.526;2023-04-06T12:46:02;4.22;;;3.75;;
33864;SDS011;20159;51.072;13.526;2023-04-06T12:48:27;4.22;;;3.63;;
33864;SDS011;20159;51.072;13.526;2023-04-06T12:50:54;6.80;;;3.60;;
33864;SDS011;20159;51.072;13.526;2023-04-06T12:53:21;5.00;;;3.67;;
33864;SDS011;20159;51.072;13.526;2023-04-06T12:55:46;6.32;;;3.90;;
33864;SDS011;20159;51.072;13.526;2023-04-06T12:58:11;4.53;;;3.58;;
33864;SDS011;20159;51.072;13.526;2023-04-06T13:00:37;4.13;;;3.72;;
33864;SDS011;20159;51.072;13.526;2023-04-06T13:03:02;4.70;;;3.72;;
33864;SDS011;20159;51.072;13.526;2023-04-06T13:05:28;4.80;;;3.55;;
33864;SDS011;20159;51.072;13.526;2023-04-06T13:07:53;3.65;;;3.30;;
33864;SDS011;20159;51.072;13.526;2023-04-06T13:10:19;5.85;;;3.70;;
33864;SDS011;20159;51.072;13.526;2023-04-06T13:12:44;3.80;;;3.35;;
33864;SDS011;20159;51.072;13.526;2023-04-06T13:15:10;4.13;;;3.28;;
33864;SDS011;20159;51.072;13.526;2023-04-06T13:17:36;5.95;;;3.28;;
33864;SDS011;20159;51.072;13.526;2023-04-06T13:20:01;5.90;;;3.00;;
33864;SDS011;20159;51.072;13.526;2023-04-06T13:22:28;4.65;;;3.92;;
33864;SDS011;20159;51.072;13.526;2023-04-06T13:24:54;3.53;;;3.08;;
33864;SDS011;20159;51.072;13.526;2023-04-06T13:27:19;4.13;;;3.72;;
33864;SDS011;20159;51.072;13.526;2023-04-06T13:29:45;4.47;;;3.90;;
33864;SDS011;20159;51.072;13.526;2023-04-06T13:32:10;5.35;;;3.50;;
33864;SDS011;20159;51.072;13.526;2023-04-06T13:34:36;4.72;;;3.47;;
33864;SDS011;20159;51.072;13.526;2023-04-06T13:37:01;4.65;;;3.50;;
33864;SDS011;20159;51.072;13.526;2023-04-06T13:39:27;4.20;;;3.80;;
33864;SDS011;20159;51.072;13.526;2023-04-06T13:41:55;3.83;;;3.45;;
33864;SDS011;20159;51.072;13.526;2023-04-06T13:44:21;5.97;;;3.65;;
33864;SDS011;20159;51.072;13.526;2023-04-06T13:46:47;4.30;;;3.10;;
33864;SDS011;20159;51.072;13.526;2023-04-06T13:49:13;3.92;;;3.53;;
33864;SDS011;20159;51.072;13.526;2023-04-06T13:51:38;3.88;;;3.10;;
33864;SDS011;20159;51.072;13.526;2023-04-06T13:54:04;3.58;;;3.20;;
33864;SDS011;20159;51.072;13.526;2023-04-06T13:56:29;3.88;;;3.47;;
33864;SDS011;20159;51.072;13.526;2023-04-06T13:58:55;3.88;;;3.30;;
33864;SDS011;20159;51.072;13.526;2023-04-06T14:01:21;3.42;;;3.13;;
33864;SDS011;20159;51.072;13.526;2023-04-06T14:03:48;4.30;;;3.30;;
33864;SDS011;20159;51.072;13.526;2023-04-06T14:06:14;4.63;;;3.25;;
33864;SDS011;20159;51.072;13.526;2023-04-06T14:08:40;4.25;;;3.80;;
33864;SDS011;20159;51.072;13.526;2023-04-06T14:11:06;4.05;;;3.70;;
33864;SDS011;20159;51.072;13.526;2023-04-06T14:13:36;4.32;;;3.05;;
33864;SDS011;20159;51.072;13.526;2023-04-06T14:16:02;4.38;;;3.55;;
33864;SDS011;20159;51.072;13.526;2023-04-06T14:18:27;4.20;;;3.25;;
33864;SDS011;20159;51.072;13.526;2023-04-06T14:20:56;3.80;;;3.45;;
33864;SDS011;20159;51.072;13.526;2023-04-06T14:23:22;3.75;;;3.28;;
33864;SDS011;20159;51.072;13.526;2023-04-06T14:25:50;3.55;;;3.25;;
33864;SDS011;20159;51.072;13.526;2023-04-06T14:28:16;4.45;;;3.40;;
33864;SDS011;20159;51.072;13.526;2023-04-06T14:30:42;4.20;;;3.50;;
33864;SDS011;20159;51.072;13.526;2023-04-06T14:33:08;3.90;;;3.50;;